Time;durP1;ratioP1;P1;durP2;ratioP2;P2;SDS_P1;SDS_P2;PMS_P1;PMS_P2;Temp;Humidity;BMP_temperature;BMP_pressure;BME280_temperature;BME280_humidity;BME280_pressure;Samples;Min_cycle;Max_cycle;Signal;HPM_P1;HPM_P2
2022/01/28 00:04:40;;;;;;;16.88;2.78;;;;;;;3.97;100.00;102929.47;5095984;28;20530;-66
2022/01/28 00:07:05;;;;;;;15.52;2.28;;;;;;;3.89;100.00;102925.63;5096276;28;20102;-67
2022/01/28 00:09:30;;;;;;;16.13;2.28;;;;;;;3.82;100.00;102925.31;5096176;28;20032;-67
2022/01/28 00:11:56;;;;;;;14.77;2.55;;;;;;;3.81;100.00;102938.19;5096354;28;20112;-67
2022/01/28 00:17:19;;;;;;;14.25;2.88;;;;;;;3.69;100.00;102961.81;5096132;28;20046;-66
2022/01/28 00:38:36;;;;;;;12.98;2.20;;;;;;;3.42;100.00;102978.59;5095263;28;20101;-66
2022/01/28 00:41:03;;;;;;;16.08;2.90;;;;;;;3.34;100.00;102975.59;5095615;28;20142;-67
2022/01/28 00:43:28;;;;;;;9.18;1.77;;;;;;;3.26;100.00;102969.19;5095052;28;20084;-66
2022/01/28 00:45:53;;;;;;;9.70;2.03;;;;;;;3.30;100.00;102970.19;5095044;28;20027;-68
2022/01/28 00:48:19;;;;;;;13.98;3.08;;;;;;;3.25;100.00;102964.81;5094998;28;20107;-66
2022/01/28 00:50:44;;;;;;;13.48;2.33;;;;;;;3.21;100.00;102954.22;5094990;28;20036;-67
2022/01/28 00:53:10;;;;;;;13.52;2.45;;;;;;;3.23;100.00;102970.72;5095313;28;20441;-66
2022/01/28 00:55:35;;;;;;;18.15;2.80;;;;;;;3.18;100.00;102961.81;5095117;28;20059;-65
2022/01/28 00:58:01;;;;;;;10.90;2.30;;;;;;;3.20;100.00;102975.72;5094857;28;20081;-67
2022/01/28 01:00:26;;;;;;;13.20;2.33;;;;;;;3.25;100.00;102971.69;5094807;28;20168;-66
2022/01/28 01:02:52;;;;;;;14.50;2.75;;;;;;;3.25;100.00;102974.28;5095132;28;20436;-66
2022/01/28 01:05:17;;;;;;;18.48;2.55;;;;;;;3.25;100.00;102976.84;5095056;28;20039;-68
2022/01/28 01:07:43;;;;;;;15.10;2.30;;;;;;;3.25;100.00;102969.09;5095028;28;20028;-67
2022/01/28 01:10:09;;;;;;;20.70;3.03;;;;;;;3.26;100.00;102973.47;5094671;28;20032;-66
2022/01/28 01:12:40;;;;;;;19.17;3.17;;;;;;;3.17;100.00;102952.28;5095216;28;20031;-68
2022/01/28 01:15:06;;;;;;;13.48;2.50;;;;;;;3.31;100.00;102987.50;5094739;28;20052;-68
2022/01/28 01:17:43;;;;;;;12.00;2.90;;;;;;;3.34;100.00;102979.91;5094578;28;20043;-67
2022/01/28 01:22:39;;;;;;;11.73;2.30;;;;;;;3.36;100.00;102984.34;5094936;28;20059;-66
2022/01/28 01:25:14;;;;;;;14.50;2.25;;;;;;;3.41;100.00;102988.06;5094810;28;20032;-66
2022/01/28 01:27:42;;;;;;;20.10;3.42;;;;;;;3.41;100.00;102969.94;5095032;28;20036;-66
2022/01/28 01:30:08;;;;;;;15.90;2.50;;;;;;;3.41;100.00;102971.63;5096568;28;20034;-69
2022/01/28 01:32:34;;;;;;;17.27;2.30;;;;;;;3.41;100.00;102982.88;5098883;28;20054;-66
2022/01/28 01:34:59;;;;;;;14.65;2.33;;;;;;;3.43;100.00;102993.31;5098838;28;20024;-67
2022/01/28 01:37:24;;;;;;;14.43;2.67;;;;;;;3.40;100.00;102993.16;5098839;28;20032;-65
2022/01/28 01:39:51;;;;;;;14.63;2.42;;;;;;;3.41;100.00;102993.22;5098604;28;20384;-66
2022/01/28 01:42:35;;;;;;;14.77;2.30;;;;;;;3.36;100.00;102994.69;5098680;28;20035;-66
2022/01/28 01:45:42;;;;;;;14.45;2.22;;;;;;;3.33;100.00;103019.50;5098947;28;20343;-66
2022/01/28 01:53:25;;;;;;;18.23;2.63;;;;;;;3.21;100.00;103021.50;5098424;28;20042;-67
2022/01/28 01:55:50;;;;;;;15.90;2.53;;;;;;;3.21;100.00;103018.91;5098650;28;20036;-66
2022/01/28 01:58:19;;;;;;;18.83;3.08;;;;;;;3.21;100.00;103024.06;5098676;28;20419;-67
2022/01/28 02:00:45;;;;;;;13.38;2.20;;;;;;;3.15;100.00;103029.81;5098331;28;20035;-67
2022/01/28 02:03:11;;;;;;;12.25;2.28;;;;;;;3.19;100.00;103031.75;5098662;28;20043;-65
2022/01/28 02:05:36;;;;;;;10.60;2.78;;;;;;;3.14;100.00;103023.75;5080879;28;20036;-68
2022/01/28 02:08:06;;;;;;;15.85;2.60;;;;;;;3.19;100.00;103046.38;5098403;28;20419;-67
2022/01/28 02:10:34;;;;;;;13.50;2.60;;;;;;;3.18;100.00;103039.44;5098386;28;20085;-66
2022/01/28 02:13:00;;;;;;;19.02;2.72;;;;;;;3.22;100.00;103052.63;5098461;28;20036;-65
2022/01/28 02:15:25;;;;;;;16.05;2.53;;;;;;;3.20;100.00;103051.66;5097659;28;20403;-68
2022/01/28 02:17:50;;;;;;;13.63;2.58;;;;;;;3.24;100.00;103053.59;5098311;28;20068;-65
2022/01/28 02:20:26;;;;;;;19.48;2.95;;;;;;;3.22;100.00;103049.13;5098136;28;20120;-68
2022/01/28 02:22:53;;;;;;;21.58;3.08;;;;;;;3.25;100.00;103051.88;5098192;28;20054;-70
2022/01/28 02:25:26;;;;;;;13.48;2.55;;;;;;;3.29;100.00;103057.28;5097954;28;20336;-68
2022/01/28 02:27:52;;;;;;;14.63;2.65;;;;;;;3.30;100.00;103055.59;5099288;28;20042;-65
2022/01/28 02:30:19;;;;;;;16.25;2.60;;;;;;;3.30;100.00;103058.16;5102113;28;20024;-66
2022/01/28 02:32:47;;;;;;;12.73;2.47;;;;;;;3.28;100.00;103054.63;5098604;28;20028;-67
2022/01/28 02:35:12;;;;;;;20.27;3.08;;;;;;;3.31;100.00;103072.88;5097797;28;20035;-65
2022/01/28 02:37:37;;;;;;;13.02;2.50;;;;;;;3.15;100.00;103046.22;5097866;28;20020;-68
2022/01/28 02:40:05;;;;;;;17.52;2.50;;;;;;;3.30;100.00;103068.53;5097560;28;20089;-68
2022/01/28 02:42:46;;;;;;;20.20;3.35;;;;;;;3.26;100.00;103067.50;5097388;28;20599;-66
2022/01/28 02:45:21;;;;;;;12.45;2.50;;;;;;;3.24;100.00;103065.63;5097733;28;20062;-65
2022/01/28 02:47:50;;;;;;;16.17;2.80;;;;;;;3.24;100.00;103068.22;5097716;28;20024;-69
2022/01/28 02:50:15;;;;;;;10.40;2.53;;;;;;;3.18;100.00;103068.78;5097650;28;20036;-66
2022/01/28 02:52:51;;;;;;;16.23;2.47;;;;;;;3.17;100.00;103068.69;5097412;28;20443;-68
2022/01/28 02:55:16;;;;;;;11.25;2.20;;;;;;;3.14;100.00;103064.25;5097515;28;20052;-65
2022/01/28 02:57:51;;;;;;;16.15;3.28;;;;;;;3.21;100.00;103081.00;5097251;28;20063;-67
2022/01/28 03:00:17;;;;;;;16.45;2.83;;;;;;;3.22;100.00;103075.00;5097468;28;20054;-67
2022/01/28 03:02:42;;;;;;;16.17;2.72;;;;;;;3.23;100.00;103089.72;5097363;28;20198;-67
2022/01/28 03:05:30;;;;;;;13.68;2.47;;;;;;;3.18;100.00;103078.25;5097232;28;20088;-68
2022/01/28 03:07:55;;;;;;;16.77;2.58;;;;;;;3.15;100.00;103102.25;5097117;28;20028;-66
2022/01/28 03:10:31;;;;;;;11.30;2.17;;;;;;;3.06;100.00;103083.66;5096808;28;20181;-65
2022/01/28 03:13:16;;;;;;;17.45;2.88;;;;;;;3.12;100.00;103097.78;5097188;28;20043;-66
2022/01/28 03:15:46;;;;;;;17.95;2.80;;;;;;;3.19;100.00;103096.44;5096714;28;20040;-67
2022/01/28 03:18:18;;;;;;;12.65;2.30;;;;;;;3.19;100.00;103093.84;5096977;28;20039;-66
2022/01/28 03:21:18;;;;;;;11.75;2.53;;;;;;;3.25;100.00;103112.28;5097184;28;20383;-68
2022/01/28 03:23:36;;;;;;;20.35;2.72;;;;;;;3.26;100.00;103100.25;5095049;28;20043;-65
2022/01/28 03:26:02;;;;;;;14.07;2.38;;;;;;;3.31;100.00;103103.94;5097082;28;20396;-68
2022/01/28 03:28:27;;;;;;;18.30;3.03;;;;;;;3.39;100.00;103107.81;5096859;28;20063;-66
2022/01/28 03:30:52;;;;;;;14.23;2.70;;;;;;;3.42;100.00;103103.72;5096797;28;20020;-67
2022/01/28 03:33:18;;;;;;;11.80;2.08;;;;;;;3.49;100.00;103110.97;5096838;28;20035;-65
2022/01/28 03:35:43;;;;;;;11.50;2.50;;;;;;;3.53;100.00;103091.31;5096531;28;20177;-67
2022/01/28 03:38:12;;;;;;;17.92;3.10;;;;;;;3.55;100.00;103097.47;5096566;28;20035;-69
2022/01/28 03:40:39;;;;;;;12.30;2.45;;;;;;;3.55;100.00;103094.88;5096479;28;20036;-66
2022/01/28 03:43:05;;;;;;;17.73;2.75;;;;;;;3.47;100.00;103093.56;5096295;28;20027;-67
2022/01/28 03:45:30;;;;;;;15.75;2.80;;;;;;;3.58;100.00;103110.56;5096095;28;20110;-65
2022/01/28 03:47:56;;;;;;;11.55;2.75;;;;;;;3.49;100.00;103103.19;5096445;28;20062;-65
2022/01/28 03:50:21;;;;;;;13.07;3.20;;;;;;;3.43;100.00;103104.59;5096404;28;20343;-67
2022/01/28 03:52:46;;;;;;;17.67;2.70;;;;;;;3.40;100.00;103114.78;5095703;28;20031;-66
2022/01/28 03:55:12;;;;;;;14.98;2.60;;;;;;;3.30;100.00;103112.50;5096265;28;20113;-67
2022/01/28 03:57:37;;;;;;;10.27;2.60;;;;;;;3.18;100.00;103106.69;5096053;28;20035;-66
2022/01/28 04:00:05;;;;;;;16.58;2.42;;;;;;;3.18;100.00;103117.94;5096125;28;20043;-66
2022/01/28 04:02:33;;;;;;;10.57;2.60;;;;;;;3.11;100.00;103116.75;5096335;28;20024;-68
2022/01/28 04:12:52;;;;;;;11.15;2.00;;;;;;;2.86;100.00;103134.31;5096003;28;20055;-66
2022/01/28 04:15:37;;;;;;;12.15;2.83;;;;;;;2.76;100.00;103132.03;5095683;28;20040;-67
2022/01/28 04:18:03;;;;;;;16.42;2.15;;;;;;;2.71;100.00;103128.31;5095719;28;20043;-67
2022/01/28 04:20:32;;;;;;;8.90;2.00;;;;;;;2.68;100.00;103135.88;5095897;28;20032;-67
2022/01/28 04:22:57;;;;;;;11.73;2.45;;;;;;;2.67;100.00;103131.53;5095566;28;20107;-65
2022/01/28 04:25:23;;;;;;;11.13;2.40;;;;;;;2.62;100.00;103139.00;5095782;28;20064;-67
2022/01/28 04:27:48;;;;;;;8.65;2.08;;;;;;;2.59;100.00;103138.88;5095671;28;20036;-65
2022/01/28 04:30:13;;;;;;;12.98;2.50;;;;;;;2.60;100.00;103137.16;5095546;28;20225;-66
2022/01/28 04:32:39;;;;;;;10.52;2.10;;;;;;;2.65;100.00;103135.72;5095607;28;20028;-67
2022/01/28 04:35:06;;;;;;;9.18;2.10;;;;;;;2.67;100.00;103137.56;5095350;28;20144;-64
2022/01/28 04:37:49;;;;;;;8.93;1.90;;;;;;;2.61;100.00;103149.25;5095224;28;20042;-65
2022/01/28 04:40:20;;;;;;;12.18;2.33;;;;;;;2.58;100.00;103151.69;5095666;28;20059;-66
2022/01/28 04:45:42;;;;;;;15.25;2.92;;;;;;;2.64;100.00;103157.19;5095507;28;20040;-66
2022/01/28 04:48:12;;;;;;;21.08;2.47;;;;;;;2.71;100.00;103151.56;5094471;28;20064;-64
2022/01/28 04:56:00;;;;;;;13.65;2.60;;;;;;;2.80;100.00;103160.72;5095429;28;20079;-65
2022/01/28 04:58:42;;;;;;;13.60;2.50;;;;;;;2.78;100.00;103166.59;5095018;28;20035;-69
2022/01/28 05:08:59;;;;;;;20.42;4.22;;;;;;;2.65;100.00;103170.19;5094942;28;20044;-65
2022/01/28 05:11:50;;;;;;;16.67;4.22;;;;;;;2.62;100.00;103176.88;5094857;28;20044;-68
2022/01/28 05:14:53;;;;;;;21.50;4.43;;;;;;;2.57;100.00;103179.25;5093646;28;20502;-66
2022/01/28 05:27:21;;;;;;;21.08;4.75;;;;;;;2.36;100.00;103191.81;5095070;28;20541;-66
2022/01/28 05:29:47;;;;;;;19.88;5.07;;;;;;;2.41;100.00;103210.19;5094928;28;20056;-67
2022/01/28 05:32:12;;;;;;;20.08;5.97;;;;;;;2.37;100.00;103188.44;5094846;28;20478;-68
2022/01/28 05:34:39;;;;;;;22.55;5.43;;;;;;;2.39;100.00;103204.91;5094795;28;20392;-65
2022/01/28 05:37:05;;;;;;;21.73;5.82;;;;;;;2.30;100.00;103194.03;5094778;28;20032;-66
2022/01/28 05:39:30;;;;;;;21.67;5.68;;;;;;;2.27;100.00;103191.28;5094899;28;20044;-67
2022/01/28 05:41:55;;;;;;;22.65;4.95;;;;;;;2.28;100.00;103212.81;5094628;28;20055;-68
2022/01/28 05:44:21;;;;;;;15.80;4.75;;;;;;;2.16;100.00;103206.94;5094499;28;20463;-68
2022/01/28 05:46:47;;;;;;;19.83;5.25;;;;;;;2.09;100.00;103209.16;5094774;28;20097;-66
2022/01/28 05:49:13;;;;;;;12.63;4.53;;;;;;;2.09;100.00;103221.19;5094704;28;20044;-67
2022/01/28 05:51:40;;;;;;;18.33;4.72;;;;;;;2.02;100.00;103213.91;5094893;28;20094;-65
2022/01/28 05:54:06;;;;;;;11.48;4.25;;;;;;;2.01;100.00;103222.44;5094634;28;20043;-66
2022/01/28 05:56:31;;;;;;;15.23;5.00;;;;;;;1.87;100.00;103203.56;5094501;28;20036;-67
2022/01/28 05:58:57;;;;;;;23.48;5.13;;;;;;;1.90;100.00;103224.41;5094697;28;20123;-68
2022/01/28 06:01:23;;;;;;;14.57;5.00;;;;;;;1.94;100.00;103234.09;5094632;28;20035;-65
2022/01/28 06:03:48;;;;;;;21.15;5.05;;;;;;;1.89;100.00;103225.19;5094595;28;20028;-65
2022/01/28 06:06:19;;;;;;;14.60;4.70;;;;;;;1.90;100.00;103239.88;5094527;28;20123;-65
2022/01/28 06:08:55;;;;;;;16.67;5.07;;;;;;;1.86;100.00;103237.03;5094613;28;20031;-66
2022/01/28 06:11:22;;;;;;;12.80;4.38;;;;;;;1.84;100.00;103243.78;5094424;28;20031;-65
2022/01/28 06:13:48;;;;;;;16.90;4.75;;;;;;;1.81;100.00;103256.50;5094718;28;20046;-64
2022/01/28 06:16:16;;;;;;;17.50;5.47;;;;;;;1.79;100.00;103271.00;5095904;28;20048;-65
2022/01/28 06:18:42;;;;;;;17.52;5.25;;;;;;;1.80;100.00;103267.63;5097966;28;20020;-60
2022/01/28 06:21:08;;;;;;;16.83;5.05;;;;;;;1.74;100.00;103255.22;5098343;28;20042;-69
2022/01/28 06:23:34;;;;;;;18.85;5.10;;;;;;;1.70;100.00;103250.69;5097395;28;20507;-68
2022/01/28 06:25:59;;;;;;;14.18;4.75;;;;;;;1.68;100.00;103262.59;5097856;28;20039;-68
2022/01/28 06:28:25;;;;;;;14.13;4.57;;;;;;;1.60;100.00;103264.69;5098258;28;20028;-69
2022/01/28 06:30:50;;;;;;;11.20;4.82;;;;;;;1.60;100.00;103280.19;5097562;28;20032;-69
2022/01/28 06:33:16;;;;;;;16.25;4.45;;;;;;;1.59;100.00;103280.09;5097689;28;20120;-68
2022/01/28 06:35:42;;;;;;;14.77;4.35;;;;;;;1.52;100.00;103284.00;5097295;28;20439;-70
2022/01/28 06:38:07;;;;;;;16.20;4.53;;;;;;;1.50;100.00;103287.25;5097429;28;20024;-67
2022/01/28 06:40:33;;;;;;;16.23;4.65;;;;;;;1.39;100.00;103289.16;5097776;28;20032;-69
2022/01/28 06:42:58;;;;;;;15.70;4.40;;;;;;;1.32;100.00;103293.06;5097637;28;20036;-67
2022/01/28 06:45:23;;;;;;;15.57;4.95;;;;;;;1.34;100.00;103298.31;5097783;28;20028;-70
2022/01/28 06:47:49;;;;;;;14.32;4.55;;;;;;;1.36;100.00;103300.19;5097852;28;20028;-67
2022/01/28 06:50:14;;;;;;;15.73;4.78;;;;;;;1.34;100.00;103300.88;5097762;28;20115;-67
2022/01/28 06:52:41;;;;;;;13.93;4.43;;;;;;;1.36;100.00;103307.03;5097434;28;20316;-69
2022/01/28 06:55:07;;;;;;;20.67;5.30;;;;;;;1.37;100.00;103306.25;5097459;28;20054;-68
2022/01/28 06:57:33;;;;;;;14.75;4.85;;;;;;;1.30;100.00;103323.00;5097381;28;20446;-68
2022/01/28 06:59:58;;;;;;;14.30;5.10;;;;;;;1.29;100.00;103322.91;5097472;28;20398;-69
2022/01/28 07:02:24;;;;;;;21.20;5.50;;;;;;;1.29;100.00;103334.13;5097100;28;20045;-63
2022/01/28 07:04:49;;;;;;;15.85;4.80;;;;;;;1.30;100.00;103341.06;5097253;28;20028;-65
2022/01/28 07:07:15;;;;;;;20.25;5.15;;;;;;;1.24;100.00;103338.09;5096484;28;20466;-64
2022/01/28 07:09:40;;;;;;;17.30;5.50;;;;;;;1.28;100.00;103347.81;5097001;28;20032;-67
2022/01/28 07:12:06;;;;;;;19.77;6.50;;;;;;;1.26;100.00;103349.41;5096765;28;20511;-69
2022/01/28 07:14:32;;;;;;;19.95;6.10;;;;;;;1.16;100.00;103347.03;5079037;28;20054;-68
2022/01/28 07:16:57;;;;;;;21.17;5.80;;;;;;;1.14;100.00;103358.03;5097149;28;20127;-66
2022/01/28 07:19:23;;;;;;;22.60;6.22;;;;;;;1.20;100.00;103364.50;5096802;28;20373;-67
2022/01/28 07:21:48;;;;;;;12.95;5.80;;;;;;;1.22;100.00;103368.03;5096660;28;20043;-68
2022/01/28 07:24:14;;;;;;;14.82;6.05;;;;;;;1.16;100.00;103359.91;5096722;28;20432;-69
2022/01/28 07:26:39;;;;;;;16.90;5.85;;;;;;;1.18;100.00;103358.34;5100850;28;20082;-65
2022/01/28 07:29:04;;;;;;;13.93;5.20;;;;;;;1.15;100.00;103359.81;5097549;28;20036;-67
2022/01/28 07:31:30;;;;;;;15.70;5.47;;;;;;;1.13;100.00;103377.75;5097023;28;20387;-66
2022/01/28 07:33:55;;;;;;;20.05;5.85;;;;;;;1.08;100.00;103373.09;5097063;28;20040;-65
2022/01/28 07:36:20;;;;;;;21.05;5.80;;;;;;;1.07;100.00;103361.88;5096997;28;20036;-65
2022/01/28 07:38:45;;;;;;;17.15;5.88;;;;;;;1.10;100.00;103366.34;5096400;28;20035;-66
2022/01/28 07:41:11;;;;;;;14.02;5.40;;;;;;;1.10;100.00;103379.25;5096414;28;20020;-65
2022/01/28 07:43:39;;;;;;;17.90;5.82;;;;;;;1.10;100.00;103386.97;5096380;28;20046;-67
2022/01/28 07:46:04;;;;;;;19.60;5.55;;;;;;;1.06;100.00;103385.88;5096485;28;20039;-66
2022/01/28 07:48:30;;;;;;;18.13;5.53;;;;;;;1.15;100.00;103390.75;5096376;28;20035;-65
2022/01/28 07:50:56;;;;;;;15.13;5.13;;;;;;;1.16;100.00;103387.41;5078388;28;20023;-68
2022/01/28 07:53:21;;;;;;;16.40;5.43;;;;;;;1.17;100.00;103386.59;5096426;28;20119;-66
2022/01/28 07:55:46;;;;;;;20.13;6.32;;;;;;;1.19;100.00;103383.34;5096153;28;20020;-66
2022/01/28 07:58:12;;;;;;;16.45;5.03;;;;;;;1.18;100.00;103389.28;5096303;28;20024;-70
2022/01/28 08:00:37;;;;;;;18.98;5.70;;;;;;;1.21;100.00;103393.75;5093898;28;20054;-69
2022/01/28 08:03:03;;;;;;;20.27;5.68;;;;;;;1.20;100.00;103392.84;5094907;28;20027;-69
2022/01/28 08:05:28;;;;;;;14.95;5.22;;;;;;;1.17;100.00;103399.50;5094829;28;20108;-69
2022/01/28 08:07:53;;;;;;;13.68;4.88;;;;;;;1.22;100.00;103404.13;5095201;28;20035;-68
2022/01/28 08:10:19;;;;;;;17.95;4.95;;;;;;;1.20;100.00;103408.34;5095835;28;20039;-68
2022/01/28 08:12:52;;;;;;;15.18;6.10;;;;;;;1.23;100.00;103411.09;5095383;28;20431;-69
2022/01/28 08:15:19;;;;;;;11.85;4.95;;;;;;;1.17;100.00;103392.66;5095375;28;20048;-69
2022/01/28 08:17:44;;;;;;;15.85;5.40;;;;;;;1.30;100.00;103415.88;5077276;28;20028;-69
2022/01/28 08:20:10;;;;;;;20.85;5.72;;;;;;;1.15;100.00;103389.06;5095522;28;20032;-69
2022/01/28 08:22:48;;;;;;;18.90;5.80;;;;;;;1.44;100.00;103432.22;5095249;28;20363;-68
2022/01/28 08:25:15;;;;;;;20.02;5.97;;;;;;;1.54;100.00;103420.84;5095329;28;20370;-68
2022/01/28 08:27:42;;;;;;;18.60;5.63;;;;;;;1.70;100.00;103439.09;5095108;28;20032;-70
2022/01/28 08:30:08;;;;;;;14.35;5.32;;;;;;;1.75;100.00;103430.84;5095171;28;20024;-67
2022/01/28 08:32:33;;;;;;;18.20;6.28;;;;;;;1.78;100.00;103422.41;5095192;28;20020;-69
2022/01/28 08:34:58;;;;;;;15.88;6.03;;;;;;;1.85;100.00;103421.09;5095023;28;20044;-68
2022/01/28 08:37:24;;;;;;;20.05;6.28;;;;;;;2.14;100.00;103436.72;5095409;28;20030;-69
2022/01/28 08:39:49;;;;;;;16.23;6.85;;;;;;;2.28;100.00;103435.88;5094985;28;20115;-69
2022/01/28 08:42:16;;;;;;;16.50;6.28;;;;;;;2.41;100.00;103432.41;5095442;28;20103;-68
2022/01/28 08:44:42;;;;;;;17.73;6.90;;;;;;;2.55;100.00;103444.47;5095211;28;20039;-68
2022/01/28 08:47:07;;;;;;;15.60;6.57;;;;;;;2.71;100.00;103451.44;5095024;28;20023;-68
2022/01/28 08:49:32;;;;;;;15.65;7.25;;;;;;;2.81;100.00;103430.50;5095000;28;20024;-68
2022/01/28 08:51:58;;;;;;;20.08;6.63;;;;;;;2.95;100.00;103437.38;5095304;28;20062;-67
2022/01/28 08:54:23;;;;;;;19.63;6.53;;;;;;;3.04;100.00;103442.22;5095242;28;20032;-68
2022/01/28 08:56:49;;;;;;;20.42;7.10;;;;;;;3.12;100.00;103441.84;5094811;28;20032;-68
2022/01/28 08:59:14;;;;;;;21.80;6.65;;;;;;;3.25;100.00;103440.91;5077093;28;20032;-61
2022/01/28 09:01:39;;;;;;;21.45;6.72;;;;;;;3.43;100.00;103438.47;5094773;28;20027;-68
2022/01/28 09:04:04;;;;;;;18.17;6.93;;;;;;;3.45;100.00;103435.19;5094582;28;20510;-68
2022/01/28 09:06:30;;;;;;;19.98;6.63;;;;;;;3.64;100.00;103442.25;5094717;28;20032;-67
2022/01/28 09:08:59;;;;;;;23.52;7.32;;;;;;;3.79;100.00;103443.16;5094643;28;20424;-68
2022/01/28 09:13:52;;;;;;;21.92;6.82;;;;;;;4.03;100.00;103432.34;5094849;28;20120;-69
2022/01/28 09:16:18;;;;;;;18.45;6.75;;;;;;;4.11;100.00;103431.97;5095246;28;20113;-69
2022/01/28 09:18:43;;;;;;;16.63;6.93;;;;;;;4.23;100.00;103431.72;5094387;28;20032;-69
2022/01/28 09:21:08;;;;;;;18.33;7.22;;;;;;;4.41;100.00;103432.72;5094653;28;20409;-69
2022/01/28 09:23:34;;;;;;;18.45;6.40;;;;;;;4.60;100.00;103423.31;5094828;28;20114;-68
2022/01/28 09:25:59;;;;;;;17.52;6.40;;;;;;;4.80;100.00;103436.50;5094643;28;20039;-68
2022/01/28 09:28:24;;;;;;;22.92;6.88;;;;;;;4.85;100.00;103439.31;5094884;28;20149;-67
2022/01/28 09:30:50;;;;;;;15.77;5.90;;;;;;;5.03;100.00;103441.97;5094336;28;20115;-67
2022/01/28 09:33:15;;;;;;;19.55;6.55;;;;;;;5.26;100.00;103446.63;5094421;28;20043;-68
2022/01/28 09:35:41;;;;;;;17.23;6.53;;;;;;;5.41;100.00;103452.56;5094475;28;20435;-69
2022/01/28 09:38:07;;;;;;;21.52;6.28;;;;;;;5.53;100.00;103454.91;5094539;28;20043;-68
2022/01/28 09:40:33;;;;;;;18.10;5.88;;;;;;;5.70;100.00;103445.31;5094234;28;20512;-68
2022/01/28 09:43:00;;;;;;;16.88;5.90;;;;;;;5.85;100.00;103451.25;5094516;28;20032;-67
2022/01/28 09:45:25;;;;;;;24.00;6.80;;;;;;;5.92;100.00;103454.22;5094562;28;20023;-68
2022/01/28 09:47:53;;;;;;;18.10;6.15;;;;;;;5.99;100.00;103449.34;5094010;28;20339;-69
2022/01/28 09:50:21;;;;;;;22.42;6.38;;;;;;;6.09;99.78;103456.72;5093261;28;20096;-67
2022/01/28 09:52:47;;;;;;;16.58;5.57;;;;;;;6.18;99.21;103455.47;5104907;28;20059;-69
2022/01/28 09:55:13;;;;;;;25.77;6.40;;;;;;;6.29;99.07;103463.75;5098531;28;20028;-68
2022/01/28 09:57:38;;;;;;;19.98;5.80;;;;;;;6.44;98.61;103460.97;5089233;28;20352;-68
2022/01/28 10:00:06;;;;;;;18.08;5.88;;;;;;;6.57;98.57;103472.00;5078099;28;20028;-69
2022/01/28 10:02:56;;;;;;;20.10;5.95;;;;;;;6.64;98.67;103466.25;5078027;28;20043;-69
2022/01/28 10:05:39;;;;;;;21.25;6.00;;;;;;;6.72;97.85;103466.59;5059870;28;20028;-68
2022/01/28 10:08:10;;;;;;;20.27;5.78;;;;;;;6.80;96.77;103464.31;5101359;28;20028;-67
2022/01/28 10:10:49;;;;;;;24.10;5.77;;;;;;;6.86;97.03;103459.38;5125982;28;20028;-69
2022/01/28 10:16:13;;;;;;;18.25;5.55;;;;;;;7.04;96.33;103468.00;5118227;28;20047;-68
2022/01/28 10:18:38;;;;;;;15.20;5.15;;;;;;;7.17;95.46;103465.09;5118335;28;20042;-68
2022/01/28 10:21:32;;;;;;;15.37;5.27;;;;;;;7.21;95.97;103459.19;5118486;28;20118;-67
2022/01/28 10:24:09;;;;;;;21.38;5.20;;;;;;;7.36;95.31;103471.06;5108296;28;20274;-67
2022/01/28 10:26:46;;;;;;;19.65;5.75;;;;;;;7.41;94.52;103464.34;5118570;28;20016;-69
2022/01/28 10:29:25;;;;;;;23.33;5.47;;;;;;;7.51;93.62;103461.28;5118371;28;20038;-69
2022/01/28 10:31:51;;;;;;;18.35;4.82;;;;;;;7.54;93.59;103470.13;5117826;28;20027;-69
2022/01/28 10:34:20;;;;;;;20.27;5.60;;;;;;;7.64;93.63;103472.25;5100373;28;20350;-60
2022/01/28 10:36:47;;;;;;;17.48;4.70;;;;;;;7.69;92.69;103473.34;5118037;28;20068;-68
2022/01/28 10:39:20;;;;;;;18.38;5.07;;;;;;;7.73;92.71;103463.94;5117891;28;20077;-68
2022/01/28 10:42:04;;;;;;;12.93;4.70;;;;;;;7.77;93.14;103468.47;5117925;28;20114;-65
2022/01/28 10:44:31;;;;;;;20.00;4.57;;;;;;;7.78;91.56;103465.03;5117850;28;20032;-60
2022/01/28 10:47:03;;;;;;;18.20;5.03;;;;;;;7.76;91.24;103457.97;5117785;28;20351;-68
2022/01/28 10:49:36;;;;;;;14.48;4.93;;;;;;;7.88;91.77;103471.47;5118051;28;20347;-69
2022/01/28 10:52:05;;;;;;;17.10;5.40;;;;;;;7.85;90.84;103460.94;5117828;28;20040;-69
2022/01/28 10:54:30;;;;;;;19.23;5.40;;;;;;;7.93;91.34;103462.13;5117352;28;20403;-67
2022/01/28 10:57:00;;;;;;;19.30;4.85;;;;;;;7.96;90.89;103459.66;5116966;28;20069;-70
2022/01/28 10:59:37;;;;;;;17.77;5.18;;;;;;;8.05;90.67;103467.81;5117497;28;20415;-69
2022/01/28 11:02:04;;;;;;;17.98;4.82;;;;;;;8.11;89.82;103448.91;5117416;28;20056;-69
2022/01/28 11:04:29;;;;;;;17.30;4.63;;;;;;;8.08;89.29;103446.19;5117115;28;20463;-69
2022/01/28 11:06:57;;;;;;;13.40;4.60;;;;;;;8.11;88.43;103438.50;5117349;28;20030;-68
2022/01/28 11:09:23;;;;;;;22.33;4.68;;;;;;;8.19;88.94;103442.25;5117003;28;20132;-68
2022/01/28 11:11:50;;;;;;;15.18;4.20;;;;;;;8.26;88.52;103446.91;5117259;28;20179;-68
2022/01/28 11:14:17;;;;;;;13.13;4.10;;;;;;;8.24;88.11;103443.34;5117153;28;20135;-70
2022/01/28 11:16:42;;;;;;;18.13;4.03;;;;;;;8.33;87.35;103448.91;5117498;28;20071;-69
2022/01/28 11:19:10;;;;;;;19.85;3.92;;;;;;;8.37;87.12;103435.16;5116930;28;20438;-68
2022/01/28 11:22:13;;;;;;;13.02;3.65;;;;;;;8.38;87.79;103421.28;5116745;28;20055;-68
2022/01/28 11:25:06;;;;;;;11.93;3.55;;;;;;;8.26;87.42;103426.03;5117214;28;20066;-70
2022/01/28 11:27:34;;;;;;;16.25;3.83;;;;;;;8.25;86.71;103419.03;5117044;28;20028;-68
2022/01/28 11:30:25;;;;;;;19.00;3.97;;;;;;;8.45;88.22;103407.66;5116564;28;20141;-70
2022/01/28 11:33:01;;;;;;;15.80;4.18;;;;;;;8.61;87.48;103396.91;5116469;28;20024;-68
2022/01/28 11:35:39;;;;;;;19.50;4.05;;;;;;;8.65;84.53;103384.88;5116677;28;20027;-68
2022/01/28 11:38:26;;;;;;;16.90;3.65;;;;;;;8.91;85.83;103412.75;5116615;28;20038;-70
2022/01/28 11:40:53;;;;;;;18.58;3.10;;;;;;;8.71;83.02;103406.84;5116446;28;20135;-70
2022/01/28 11:43:25;;;;;;;14.57;2.95;;;;;;;8.80;82.40;103410.63;5116613;28;20028;-69
2022/01/28 11:46:07;;;;;;;14.88;2.85;;;;;;;8.82;82.65;103398.50;5116509;28;20035;-68
2022/01/28 11:48:56;;;;;;;12.90;2.85;;;;;;;8.73;83.49;103397.34;5101347;28;20028;-68
2022/01/28 11:51:22;;;;;;;12.38;3.30;;;;;;;8.71;81.27;103404.22;5096194;28;20016;-68
2022/01/28 11:53:56;;;;;;;15.23;3.60;;;;;;;8.67;81.49;103404.94;5095806;28;20449;-71
2022/01/28 11:56:24;;;;;;;10.88;3.08;;;;;;;8.66;82.24;103397.06;5096145;28;20031;-70
2022/01/28 11:59:08;;;;;;;13.98;3.42;;;;;;;8.71;81.16;103401.63;5095218;28;20455;-69
2022/01/28 12:01:39;;;;;;;15.55;3.00;;;;;;;8.76;81.83;103393.06;5075658;28;20032;-61
2022/01/28 12:04:23;;;;;;;16.50;3.53;;;;;;;8.90;82.56;103402.25;5084104;28;20341;-68
2022/01/28 12:06:58;;;;;;;14.40;2.90;;;;;;;9.03;80.52;103396.59;5095924;28;20050;-67
2022/01/28 12:09:25;;;;;;;11.77;3.00;;;;;;;9.07;79.58;103390.66;5096080;28;20040;-71
2022/01/28 12:11:50;;;;;;;8.38;2.55;;;;;;;9.10;79.63;103387.28;5095530;28;20031;-67
2022/01/28 12:14:17;;;;;;;12.43;3.13;;;;;;;9.17;78.71;103392.75;5095182;28;20056;-71
2022/01/28 12:16:46;;;;;;;13.63;3.05;;;;;;;9.26;76.52;103398.28;5095646;28;20085;-68
2022/01/28 12:19:16;;;;;;;12.35;2.75;;;;;;;9.41;76.13;103405.72;5095464;28;20035;-69
2022/01/28 12:22:04;;;;;;;15.40;3.00;;;;;;;9.64;78.14;103382.94;5077611;28;20040;-69
2022/01/28 12:24:31;;;;;;;13.98;3.13;;;;;;;9.60;75.38;103381.06;5095402;28;20456;-69
2022/01/28 12:27:13;;;;;;;13.05;2.50;;;;;;;9.48;75.52;103367.63;5094931;28;20035;-68
2022/01/28 12:29:50;;;;;;;12.20;3.20;;;;;;;9.26;74.69;103371.25;5095037;28;20136;-69
2022/01/28 12:32:23;;;;;;;9.95;2.97;;;;;;;9.00;74.42;103346.91;5094916;28;20116;-68
2022/01/28 12:34:49;;;;;;;12.25;2.70;;;;;;;8.87;75.08;103366.47;5095054;28;20044;-68
2022/01/28 12:37:20;;;;;;;9.48;2.83;;;;;;;8.76;75.31;103344.34;5094950;28;20081;-70
2022/01/28 12:39:55;;;;;;;9.32;3.00;;;;;;;8.87;76.13;103353.44;5095031;28;20079;-69